Time;durP1;ratioP1;P1;durP2;ratioP2;P2;SDS_P1;SDS_P2;PMS_P1;PMS_P2;Temp;Humidity;BMP_temperature;BMP_pressure;BME280_temperature;BME280_humidity;BME280_pressure;Samples;Min_cycle;Max_cycle;Signal;HPM_P1;HPM_P2
2021/12/14 00:01:54;;;;;;;3.80;3.30;;;;;;;;;;5131394;27;20449;-74
2021/12/14 00:04:24;;;;;;;3.30;2.70;;;;;;;;;;5129362;27;20525;-74
2021/12/14 00:06:52;;;;;;;4.40;2.50;;;;;;;;;;5127464;27;20457;-74
2021/12/14 00:09:25;;;;;;;2.73;2.30;;;;;;;;;;5138286;27;20437;-74
2021/12/14 00:12:07;;;;;;;2.73;2.53;;;;;;;;;;5135999;27;20548;-74
2021/12/14 00:17:20;;;;;;;2.93;2.37;;;;;;;;;;5127335;28;20425;-74
2021/12/14 00:19:48;;;;;;;3.33;2.70;;;;;;;;;;5128307;27;20453;-74
2021/12/14 00:22:26;;;;;;;4.37;3.10;;;;;;;;;;5127760;27;20429;-73
2021/12/14 00:24:52;;;;;;;3.83;2.93;;;;;;;;;;5128154;27;20472;-74
2021/12/14 00:27:21;;;;;;;3.60;2.90;;;;;;;;;;5134717;27;20965;-74
2021/12/14 00:29:52;;;;;;;3.20;2.90;;;;;;;;;;5134886;27;20818;-75
2021/12/14 00:32:22;;;;;;;3.53;2.70;;;;;;;;;;5137208;27;20464;-74
2021/12/14 00:34:50;;;;;;;5.67;3.30;;;;;;;;;;5148242;27;20484;-74
2021/12/14 00:37:19;;;;;;;4.47;2.80;;;;;;;;;;5154304;27;20443;-73
2021/12/14 00:39:46;;;;;;;5.10;3.33;;;;;;;;;;5153432;27;20471;-75
2021/12/14 00:42:14;;;;;;;4.83;3.00;;;;;;;;;;5152594;27;20439;-74
2021/12/14 00:44:41;;;;;;;4.00;3.43;;;;;;;;;;5150381;27;20477;-74
2021/12/14 00:47:10;;;;;;;2.87;2.60;;;;;;;;;;5136278;27;20445;-73
2021/12/14 00:49:41;;;;;;;4.50;3.20;;;;;;;;;;5133272;27;20460;-74
2021/12/14 00:52:10;;;;;;;4.17;3.00;;;;;;;;;;5126650;27;20968;-74
2021/12/14 00:54:38;;;;;;;3.27;2.80;;;;;;;;;;5141862;27;20437;-74
2021/12/14 00:57:06;;;;;;;3.40;2.87;;;;;;;;;;5150825;27;20949;-74
2021/12/14 00:59:33;;;;;;;4.50;3.40;;;;;;;;;;5154667;27;20472;-73
2021/12/14 01:02:02;;;;;;;4.17;3.53;;;;;;;;;;5154662;27;20437;-74
2021/12/14 01:04:32;;;;;;;4.00;3.00;;;;;;;;;;5154996;27;20542;-73
2021/12/14 01:07:00;;;;;;;3.80;3.13;;;;;;;;;;5126640;27;20537;-74
2021/12/14 01:09:29;;;;;;;4.00;3.03;;;;;;;;;;5126955;27;20537;-73
2021/12/14 01:12:01;;;;;;;3.80;3.13;;;;;;;;;;5139107;27;20468;-75
2021/12/14 01:14:33;;;;;;;4.60;3.30;;;;;;;;;;5149554;27;20954;-75
2021/12/14 01:17:10;;;;;;;4.30;3.43;;;;;;;;;;5151795;27;20806;-74
2021/12/14 01:19:40;;;;;;;4.53;3.27;;;;;;;;;;5111910;28;20438;-74
2021/12/14 01:22:18;;;;;;;5.77;3.10;;;;;;;;;;5113145;28;20433;-74
2021/12/14 01:25:02;;;;;;;5.93;3.47;;;;;;;;;;5124700;27;20469;-74
2021/12/14 01:27:32;;;;;;;3.97;3.30;;;;;;;;;;5137672;27;20481;-75
2021/12/14 01:30:05;;;;;;;3.20;2.70;;;;;;;;;;5134486;27;20495;-73
2021/12/14 01:32:36;;;;;;;3.70;3.20;;;;;;;;;;5112260;28;20484;-74
2021/12/14 01:35:11;;;;;;;4.83;3.30;;;;;;;;;;5110779;28;20494;-73
2021/12/14 01:37:44;;;;;;;4.93;3.60;;;;;;;;;;5111991;28;20434;-73
2021/12/14 01:40:19;;;;;;;3.70;3.10;;;;;;;;;;5109898;28;20438;-74
2021/12/14 01:42:46;;;;;;;4.13;3.47;;;;;;;;;;5132385;27;20909;-74
2021/12/14 01:45:15;;;;;;;5.00;4.23;;;;;;;;;;5138237;27;20556;-74
2021/12/14 01:47:44;;;;;;;5.37;3.53;;;;;;;;;;5151530;27;20445;-74
2021/12/14 01:50:15;;;;;;;4.93;3.53;;;;;;;;;;5138094;27;20464;-74
2021/12/14 01:52:42;;;;;;;4.23;3.20;;;;;;;;;;5131987;27;20473;-74
2021/12/14 01:55:11;;;;;;;4.03;3.40;;;;;;;;;;5129951;27;20473;-74
2021/12/14 01:57:39;;;;;;;3.63;3.33;;;;;;;;;;5124457;27;20462;-74
2021/12/14 02:00:08;;;;;;;4.40;3.63;;;;;;;;;;5138645;27;20493;-75
2021/12/14 02:02:42;;;;;;;5.10;3.50;;;;;;;;;;5145727;27;20440;-75
2021/12/14 02:05:11;;;;;;;4.93;3.73;;;;;;;;;;5153219;27;20805;-74
2021/12/14 02:07:40;;;;;;;4.20;3.40;;;;;;;;;;5153132;27;20449;-74
2021/12/14 02:10:09;;;;;;;5.50;3.50;;;;;;;;;;5143922;27;20462;-74
2021/12/14 02:12:37;;;;;;;5.47;3.90;;;;;;;;;;5126789;27;20986;-74
2021/12/14 02:15:07;;;;;;;4.07;3.33;;;;;;;;;;5138764;27;21434;-74
2021/12/14 02:17:35;;;;;;;4.00;3.37;;;;;;;;;;5140059;27;20432;-74
2021/12/14 02:20:02;;;;;;;6.07;3.60;;;;;;;;;;5132301;27;20457;-74
2021/12/14 02:22:31;;;;;;;4.93;3.70;;;;;;;;;;5132051;27;20448;-73
2021/12/14 02:24:58;;;;;;;5.20;3.37;;;;;;;;;;5132061;27;20965;-74
2021/12/14 02:27:25;;;;;;;5.00;3.70;;;;;;;;;;5131599;27;21151;-74
2021/12/14 02:29:52;;;;;;;4.30;3.73;;;;;;;;;;5117210;27;20466;-74
2021/12/14 02:32:21;;;;;;;5.13;3.83;;;;;;;;;;5115745;27;20480;-74
2021/12/14 02:34:51;;;;;;;5.60;4.50;;;;;;;;;;5113189;28;20474;-74
2021/12/14 02:37:22;;;;;;;5.13;3.93;;;;;;;;;;5135907;27;20429;-74
2021/12/14 02:40:02;;;;;;;6.00;5.00;;;;;;;;;;5137366;27;20469;-74
2021/12/14 02:42:31;;;;;;;5.93;4.50;;;;;;;;;;5150807;27;20444;-74
2021/12/14 02:44:59;;;;;;;8.13;5.50;;;;;;;;;;5151415;27;20465;-74
2021/12/14 02:47:27;;;;;;;7.53;5.50;;;;;;;;;;5140931;27;20965;-73
2021/12/14 02:49:54;;;;;;;6.70;5.07;;;;;;;;;;5132216;27;20458;-74
2021/12/14 02:52:29;;;;;;;7.80;5.03;;;;;;;;;;5115928;27;20622;-73
2021/12/14 02:55:00;;;;;;;7.67;5.43;;;;;;;;;;5132585;27;20462;-73
2021/12/14 02:57:29;;;;;;;9.07;6.00;;;;;;;;;;5130743;27;20445;-73
2021/12/14 02:59:57;;;;;;;7.40;5.50;;;;;;;;;;5139683;27;20445;-75
2021/12/14 03:02:27;;;;;;;7.10;5.70;;;;;;;;;;5132436;27;20926;-74
2021/12/14 03:04:55;;;;;;;9.00;6.00;;;;;;;;;;5128668;27;20884;-74
2021/12/14 03:07:25;;;;;;;10.33;6.80;;;;;;;;;;5130158;27;20811;-75
2021/12/14 03:09:57;;;;;;;9.47;6.50;;;;;;;;;;5131561;27;20441;-74
2021/12/14 03:12:34;;;;;;;8.20;5.93;;;;;;;;;;5128285;27;20477;-74
2021/12/14 03:15:04;;;;;;;8.37;5.97;;;;;;;;;;5121178;27;20469;-74
2021/12/14 03:17:32;;;;;;;9.17;6.63;;;;;;;;;;5136935;27;20449;-73
2021/12/14 03:20:01;;;;;;;10.00;7.03;;;;;;;;;;5143354;27;20432;-74
2021/12/14 03:22:30;;;;;;;8.43;6.40;;;;;;;;;;5134592;27;20446;-74
2021/12/14 03:24:57;;;;;;;9.07;6.80;;;;;;;;;;5127943;27;20966;-75
2021/12/14 03:27:26;;;;;;;9.40;6.53;;;;;;;;;;5131022;27;20502;-74
2021/12/14 03:29:53;;;;;;;11.70;6.83;;;;;;;;;;5126520;27;20453;-74
2021/12/14 03:32:21;;;;;;;11.53;6.73;;;;;;;;;;5135272;27;20469;-73
2021/12/14 03:34:48;;;;;;;9.97;6.73;;;;;;;;;;5139280;27;20453;-74
2021/12/14 03:37:17;;;;;;;8.93;6.07;;;;;;;;;;5150603;27;20448;-74
2021/12/14 03:39:46;;;;;;;10.70;6.93;;;;;;;;;;5127745;27;20482;-75
2021/12/14 03:42:15;;;;;;;8.37;6.30;;;;;;;;;;5110707;28;20442;-75
2021/12/14 03:44:45;;;;;;;10.53;6.30;;;;;;;;;;5110322;28;20485;-75
2021/12/14 03:47:14;;;;;;;8.70;6.50;;;;;;;;;;5128500;27;20522;-74
2021/12/14 03:49:43;;;;;;;9.10;6.90;;;;;;;;;;5137400;27;20442;-74
2021/12/14 03:52:13;;;;;;;9.60;6.37;;;;;;;;;;5135777;27;20441;-73
2021/12/14 03:54:41;;;;;;;9.27;5.70;;;;;;;;;;5130671;27;20437;-74
2021/12/14 03:57:08;;;;;;;10.10;6.70;;;;;;;;;;5130894;27;20452;-74
2021/12/14 03:59:35;;;;;;;9.73;6.57;;;;;;;;;;5132179;27;20536;-75
2021/12/14 04:02:05;;;;;;;9.90;6.97;;;;;;;;;;5135081;27;20944;-74
2021/12/14 04:04:35;;;;;;;10.20;7.27;;;;;;;;;;5128435;27;20938;-74
2021/12/14 04:07:03;;;;;;;8.87;6.47;;;;;;;;;;5140631;27;20884;-74
2021/12/14 04:09:31;;;;;;;12.90;7.50;;;;;;;;;;5134796;27;20945;-74
2021/12/14 04:11:59;;;;;;;9.10;6.80;;;;;;;;;;5134864;27;20449;-75
2021/12/14 04:14:29;;;;;;;7.83;6.20;;;;;;;;;;5133672;27;20477;-74
2021/12/14 04:16:57;;;;;;;10.30;6.40;;;;;;;;;;5130294;27;20461;-74
2021/12/14 04:19:29;;;;;;;9.53;6.83;;;;;;;;;;5116664;27;20471;-74
2021/12/14 04:22:00;;;;;;;8.93;6.97;;;;;;;;;;5142660;27;20464;-74
2021/12/14 04:24:28;;;;;;;9.17;6.37;;;;;;;;;;5144304;27;20969;-75
2021/12/14 04:26:57;;;;;;;9.70;6.30;;;;;;;;;;5153964;27;20436;-74
2021/12/14 04:29:24;;;;;;;8.07;6.10;;;;;;;;;;5154171;27;20441;-74
2021/12/14 04:31:52;;;;;;;7.40;5.70;;;;;;;;;;5147598;27;20464;-75
2021/12/14 04:34:20;;;;;;;8.37;6.10;;;;;;;;;;5129638;27;20666;-74
2021/12/14 04:36:51;;;;;;;8.73;6.80;;;;;;;;;;5115930;28;20447;-74
2021/12/14 04:39:34;;;;;;;9.77;7.20;;;;;;;;;;5118564;27;20483;-75
2021/12/14 04:53:07;;;;;;;12.57;7.83;;;;;;;;;;5116654;27;20475;-74
2021/12/14 04:55:34;;;;;;;12.60;8.10;;;;;;;;;;5114025;28;20473;-74
2021/12/14 04:58:02;;;;;;;10.70;8.13;;;;;;;;;;5114446;28;20547;-74
2021/12/14 05:00:39;;;;;;;11.50;7.93;;;;;;;;;;5115536;28;20446;-74
2021/12/14 05:03:13;;;;;;;13.20;8.17;;;;;;;;;;5115544;28;20445;-74
2021/12/14 05:05:47;;;;;;;12.33;8.20;;;;;;;;;;5137965;27;20448;-75
2021/12/14 05:11:00;;;;;;;12.97;8.03;;;;;;;;;;5129815;27;21016;-74
2021/12/14 05:13:28;;;;;;;13.43;8.10;;;;;;;;;;5131772;27;20477;-74
2021/12/14 05:15:55;;;;;;;11.10;7.67;;;;;;;;;;5133288;27;20815;-74
2021/12/14 05:18:23;;;;;;;13.07;8.90;;;;;;;;;;5122008;27;20450;-74
2021/12/14 05:20:51;;;;;;;13.13;8.73;;;;;;;;;;5138189;27;20462;-74
2021/12/14 05:23:22;;;;;;;14.77;9.23;;;;;;;;;;5141029;27;20559;-74
2021/12/14 05:25:49;;;;;;;17.97;10.43;;;;;;;;;;5112382;28;20474;-74
2021/12/14 05:28:19;;;;;;;12.83;8.73;;;;;;;;;;5111449;28;20445;-74
2021/12/14 05:30:47;;;;;;;13.70;8.40;;;;;;;;;;5110961;27;20458;-74
2021/12/14 05:33:16;;;;;;;16.17;9.57;;;;;;;;;;5119663;27;20482;-74
2021/12/14 05:35:45;;;;;;;18.20;9.40;;;;;;;;;;5114182;27;20470;-74
2021/12/14 05:38:13;;;;;;;16.40;9.10;;;;;;;;;;5136934;27;20477;-72
2021/12/14 05:40:56;;;;;;;14.10;9.37;;;;;;;;;;5138467;27;20486;-75
2021/12/14 05:43:24;;;;;;;13.90;8.90;;;;;;;;;;5132304;27;20806;-75
2021/12/14 05:45:53;;;;;;;16.20;9.57;;;;;;;;;;5132752;27;20967;-74
2021/12/14 05:48:22;;;;;;;15.83;9.80;;;;;;;;;;5123047;27;20461;-74
2021/12/14 05:50:50;;;;;;;11.57;7.93;;;;;;;;;;5116115;27;20453;-74
2021/12/14 05:53:20;;;;;;;17.33;9.40;;;;;;;;;;5137701;27;20482;-74
2021/12/14 05:55:49;;;;;;;15.90;9.87;;;;;;;;;;5140660;27;20465;-75
2021/12/14 05:58:17;;;;;;;16.50;9.97;;;;;;;;;;5122113;27;20467;-75
2021/12/14 06:00:46;;;;;;;13.30;8.40;;;;;;;;;;5127272;27;20457;-75
2021/12/14 06:03:15;;;;;;;15.50;9.50;;;;;;;;;;5132574;27;20430;-75
2021/12/14 06:05:43;;;;;;;14.20;10.00;;;;;;;;;;5132524;27;20464;-74
2021/12/14 06:08:10;;;;;;;14.30;8.83;;;;;;;;;;5115400;27;20458;-75
2021/12/14 06:10:37;;;;;;;14.70;9.20;;;;;;;;;;5136033;27;20449;-75
2021/12/14 06:13:06;;;;;;;13.80;8.30;;;;;;;;;;5137910;27;20473;-74
2021/12/14 06:15:33;;;;;;;17.67;9.60;;;;;;;;;;5129913;27;20993;-75
2021/12/14 06:18:00;;;;;;;16.47;10.07;;;;;;;;;;5132089;27;20437;-75
2021/12/14 06:20:28;;;;;;;14.23;9.20;;;;;;;;;;5129363;27;20485;-75
2021/12/14 06:22:56;;;;;;;14.40;8.67;;;;;;;;;;5111428;28;20508;-75
2021/12/14 06:25:24;;;;;;;15.67;9.37;;;;;;;;;;5126769;27;20473;-75
2021/12/14 06:27:53;;;;;;;18.63;10.07;;;;;;;;;;5139938;27;20803;-74
2021/12/14 06:30:22;;;;;;;17.37;9.60;;;;;;;;;;5133150;27;20809;-75
2021/12/14 06:32:51;;;;;;;20.10;9.83;;;;;;;;;;5130948;27;20821;-74
2021/12/14 06:35:20;;;;;;;16.23;9.07;;;;;;;;;;5151741;27;20949;-74
2021/12/14 06:38:22;;;;;;;18.67;12.23;;;;;;;;;;5139884;27;20501;-74
2021/12/14 06:40:51;;;;;;;21.27;11.80;;;;;;;;;;5129871;27;20460;-75
2021/12/14 06:43:26;;;;;;;26.67;13.13;;;;;;;;;;5115211;27;20430;-74
2021/12/14 06:45:56;;;;;;;23.00;12.67;;;;;;;;;;5122149;27;20476;-75
2021/12/14 06:48:25;;;;;;;21.57;11.37;;;;;;;;;;5130398;27;20797;-76
2021/12/14 06:50:53;;;;;;;18.50;11.50;;;;;;;;;;5138367;27;20451;-75
2021/12/14 06:53:21;;;;;;;19.40;10.40;;;;;;;;;;5148555;27;20969;-75
2021/12/14 06:55:51;;;;;;;16.40;11.57;;;;;;;;;;5120642;27;21008;-75
2021/12/14 06:58:20;;;;;;;16.43;10.73;;;;;;;;;;5131169;27;20445;-75
2021/12/14 07:00:50;;;;;;;16.33;10.70;;;;;;;;;;5132104;27;20453;-74
2021/12/14 07:03:18;;;;;;;15.63;9.47;;;;;;;;;;5111328;27;20550;-74
2021/12/14 07:05:48;;;;;;;21.57;11.93;;;;;;;;;;5112398;28;20811;-75
2021/12/14 07:08:17;;;;;;;16.40;10.57;;;;;;;;;;5112961;28;20435;-75
2021/12/14 07:10:45;;;;;;;17.03;9.13;;;;;;;;;;5127451;27;20452;-75
2021/12/14 07:13:13;;;;;;;20.30;10.00;;;;;;;;;;5137242;27;20933;-74
2021/12/14 07:15:41;;;;;;;17.80;9.80;;;;;;;;;;5142675;27;20477;-74
2021/12/14 07:18:08;;;;;;;18.10;10.37;;;;;;;;;;5131330;27;20464;-75
2021/12/14 07:20:39;;;;;;;19.30;12.00;;;;;;;;;;5129772;27;20464;-75
2021/12/14 07:23:16;;;;;;;16.97;10.57;;;;;;;;;;5129417;27;20434;-75
2021/12/14 07:25:44;;;;;;;18.63;10.67;;;;;;;;;;5125330;27;20852;-75
2021/12/14 07:28:12;;;;;;;18.00;11.10;;;;;;;;;;5139445;27;20463;-74
2021/12/14 07:30:40;;;;;;;17.83;11.33;;;;;;;;;;5129640;27;20461;-75
2021/12/14 07:33:11;;;;;;;17.40;9.57;;;;;;;;;;5131439;27;20451;-75
2021/12/14 07:35:41;;;;;;;15.53;9.97;;;;;;;;;;5133265;27;20811;-75
2021/12/14 07:38:23;;;;;;;16.40;10.37;;;;;;;;;;5135232;27;20461;-77
2021/12/14 07:43:19;;;;;;;13.43;9.63;;;;;;;;;;5134902;27;20421;-75
2021/12/14 07:45:47;;;;;;;17.63;10.20;;;;;;;;;;5140004;27;20211;-74
2021/12/14 07:48:14;;;;;;;15.70;9.57;;;;;;;;;;5153882;27;20440;-76
2021/12/14 07:50:46;;;;;;;15.77;8.83;;;;;;;;;;5137288;27;20859;-75
2021/12/14 07:53:13;;;;;;;15.33;8.97;;;;;;;;;;5132472;27;20815;-75
2021/12/14 07:55:43;;;;;;;14.10;8.73;;;;;;;;;;5133556;27;20457;-74
2021/12/14 07:58:11;;;;;;;14.73;9.80;;;;;;;;;;5117923;27;20823;-75
2021/12/14 08:00:40;;;;;;;18.10;10.70;;;;;;;;;;5140028;27;20428;-75
2021/12/14 08:03:08;;;;;;;18.63;11.17;;;;;;;;;;5143881;27;20453;-75
2021/12/14 08:05:38;;;;;;;14.67;9.47;;;;;;;;;;5153281;27;20815;-75
2021/12/14 08:08:16;;;;;;;17.27;10.50;;;;;;;;;;5141319;27;20438;-75
2021/12/14 08:10:45;;;;;;;15.07;9.10;;;;;;;;;;5113096;27;20449;-75
2021/12/14 08:13:16;;;;;;;14.97;9.60;;;;;;;;;;5117776;27;20442;-75
2021/12/14 08:15:47;;;;;;;17.70;9.60;;;;;;;;;;5127725;27;20960;-75
2021/12/14 08:18:15;;;;;;;12.67;8.50;;;;;;;;;;5141664;27;20450;-74
2021/12/14 08:20:45;;;;;;;12.20;8.60;;;;;;;;;;5141245;27;20463;-75
2021/12/14 08:23:16;;;;;;;14.03;9.07;;;;;;;;;;5132330;27;20460;-75
2021/12/14 08:25:43;;;;;;;13.00;8.10;;;;;;;;;;5134066;27;20449;-75
2021/12/14 08:28:12;;;;;;;13.03;8.30;;;;;;;;;;5131293;27;20459;-75
2021/12/14 08:30:43;;;;;;;13.70;9.00;;;;;;;;;;5122555;27;20449;-74
2021/12/14 08:33:18;;;;;;;12.53;8.00;;;;;;;;;;5133992;27;20452;-74
2021/12/14 08:35:45;;;;;;;18.03;10.40;;;;;;;;;;5135694;27;20585;-74
2021/12/14 08:38:15;;;;;;;14.00;10.03;;;;;;;;;;5133182;27;20491;-73
2021/12/14 08:40:45;;;;;;;17.50;12.00;;;;;;;;;;5131429;27;20632;-75
2021/12/14 08:43:21;;;;;;;14.33;9.97;;;;;;;;;;5131905;27;20441;-74
2021/12/14 08:45:50;;;;;;;15.97;9.73;;;;;;;;;;5116047;27;20489;-74
2021/12/14 08:48:19;;;;;;;15.63;10.03;;;;;;;;;;5138369;27;20446;-74
2021/12/14 08:50:47;;;;;;;16.00;8.73;;;;;;;;;;5136321;27;20466;-75
2021/12/14 08:53:16;;;;;;;11.93;9.07;;;;;;;;;;5118356;27;20950;-74
2021/12/14 08:55:48;;;;;;;14.77;9.20;;;;;;;;;;5112252;28;20488;-74
2021/12/14 08:58:15;;;;;;;13.40;8.33;;;;;;;;;;5112306;28;20443;-75
2021/12/14 09:00:45;;;;;;;12.73;7.90;;;;;;;;;;5113444;27;20818;-74
2021/12/14 09:03:14;;;;;;;10.70;7.00;;;;;;;;;;5123997;27;20446;-74
2021/12/14 09:05:44;;;;;;;10.83;7.23;;;;;;;;;;5142022;27;20898;-74
2021/12/14 09:08:11;;;;;;;11.13;8.00;;;;;;;;;;5146990;27;20488;-74
2021/12/14 09:10:40;;;;;;;12.60;8.63;;;;;;;;;;5152131;27;20531;-74
2021/12/14 09:13:11;;;;;;;12.10;7.77;;;;;;;;;;5148724;27;20440;-74
2021/12/14 09:15:40;;;;;;;12.30;7.90;;;;;;;;;;5126489;27;20571;-74
2021/12/14 09:18:07;;;;;;;12.57;7.90;;;;;;;;;;5125218;27;20533;-75
2021/12/14 09:20:36;;;;;;;11.23;7.63;;;;;;;;;;5116252;27;20462;-75
2021/12/14 09:23:07;;;;;;;10.33;7.83;;;;;;;;;;5126254;27;20464;-75
2021/12/14 09:25:35;;;;;;;10.80;7.37;;;;;;;;;;5125265;27;20961;-74
2021/12/14 09:28:04;;;;;;;12.93;8.10;;;;;;;;;;5139845;27;20786;-74
2021/12/14 09:30:35;;;;;;;10.90;7.43;;;;;;;;;;5129111;27;20455;-74
2021/12/14 09:33:02;;;;;;;12.13;7.30;;;;;;;;;;5112927;28;20850;-74
2021/12/14 09:35:30;;;;;;;9.70;7.03;;;;;;;;;;5112414;28;20844;-74
2021/12/14 09:37:59;;;;;;;16.43;8.27;;;;;;;;;;5112531;28;20478;-74
2021/12/14 09:40:29;;;;;;;13.17;7.83;;;;;;;;;;5121506;27;20484;-74
2021/12/14 09:42:56;;;;;;;14.20;9.40;;;;;;;;;;5134061;27;20524;-74
2021/12/14 09:45:26;;;;;;;12.57;7.47;;;;;;;;;;5132352;27;20465;-74
2021/12/14 09:47:55;;;;;;;14.10;8.00;;;;;;;;;;5134805;27;20441;-73
2021/12/14 09:50:24;;;;;;;12.30;7.60;;;;;;;;;;5136800;27;21017;-74
2021/12/14 09:52:51;;;;;;;10.37;6.53;;;;;;;;;;5148420;27;20440;-74
2021/12/14 09:55:22;;;;;;;9.83;6.67;;;;;;;;;;5130378;27;20483;-74
2021/12/14 09:57:51;;;;;;;9.90;6.40;;;;;;;;;;5130589;27;20539;-74
2021/12/14 10:00:20;;;;;;;8.87;6.17;;;;;;;;;;5131599;27;20817;-74
2021/12/14 10:02:48;;;;;;;9.80;6.23;;;;;;;;;;5118745;27;20466;-73
2021/12/14 10:05:19;;;;;;;9.00;6.30;;;;;;;;;;5139089;27;20458;-74
2021/12/14 10:07:48;;;;;;;11.40;6.13;;;;;;;;;;5144429;27;20892;-73
2021/12/14 10:10:18;;;;;;;9.30;6.47;;;;;;;;;;5153527;27;20493;-74
2021/12/14 10:12:50;;;;;;;9.43;6.40;;;;;;;;;;5132320;27;20473;-74
2021/12/14 10:15:28;;;;;;;9.73;6.63;;;;;;;;;;5115130;27;20836;-74
2021/12/14 10:17:56;;;;;;;11.90;7.80;;;;;;;;;;5110509;27;20969;-74
2021/12/14 10:20:26;;;;;;;9.73;5.77;;;;;;;;;;5135158;27;20853;-74
2021/12/14 10:22:53;;;;;;;10.50;6.30;;;;;;;;;;5135888;27;20817;-74
2021/12/14 10:25:23;;;;;;;7.93;5.93;;;;;;;;;;5128785;27;21016;-74
2021/12/14 10:27:51;;;;;;;11.97;7.80;;;;;;;;;;5123798;27;20540;-73
2021/12/14 10:30:20;;;;;;;7.97;6.00;;;;;;;;;;5110356;28;20507;-75
2021/12/14 10:32:48;;;;;;;16.13;8.07;;;;;;;;;;5130270;27;20453;-76
2021/12/14 10:35:21;;;;;;;8.20;5.70;;;;;;;;;;5125516;27;20478;-75
2021/12/14 10:37:55;;;;;;;8.90;6.50;;;;;;;;;;5136076;27;20988;-75
2021/12/14 10:43:12;;;;;;;7.87;5.47;;;;;;;;;;5128746;27;20492;-74
2021/12/14 10:45:42;;;;;;;8.50;5.37;;;;;;;;;;5109897;28;20514;-74
2021/12/14 10:48:10;;;;;;;8.50;5.27;;;;;;;;;;5111277;28;20491;-74
2021/12/14 10:50:38;;;;;;;8.50;5.50;;;;;;;;;;5117515;27;20581;-74
2021/12/14 10:53:08;;;;;;;8.87;5.93;;;;;;;;;;5139591;27;20497;-74
2021/12/14 10:55:38;;;;;;;8.00;6.17;;;;;;;;;;5144792;27;20473;-74
2021/12/14 10:58:06;;;;;;;7.60;5.73;;;;;;;;;;5151187;27;20445;-74
2021/12/14 11:00:36;;;;;;;8.80;5.70;;;;;;;;;;5147415;27;20441;-74
2021/12/14 11:03:07;;;;;;;11.63;6.17;;;;;;;;;;5131800;27;20520;-74
2021/12/14 11:05:35;;;;;;;9.87;6.03;;;;;;;;;;5125770;27;20488;-74
2021/12/14 11:08:02;;;;;;;7.20;5.53;;;;;;;;;;5119409;27;20530;-74
2021/12/14 11:10:33;;;;;;;6.97;5.37;;;;;;;;;;5133761;27;20444;-74
2021/12/14 11:13:02;;;;;;;9.47;5.53;;;;;;;;;;5132167;27;20445;-74
2021/12/14 11:15:32;;;;;;;9.93;6.37;;;;;;;;;;5138908;27;20472;-73
2021/12/14 11:20:45;;;;;;;6.80;4.70;;;;;;;;;;5129371;27;20517;-73
2021/12/14 11:23:13;;;;;;;7.80;5.47;;;;;;;;;;5129737;27;20457;-74
2021/12/14 11:25:46;;;;;;;7.00;5.13;;;;;;;;;;5121323;27;20462;-74
2021/12/14 11:28:19;;;;;;;7.23;5.40;;;;;;;;;;5114536;27;20458;-74
2021/12/14 11:30:51;;;;;;;6.30;4.80;;;;;;;;;;5110834;28;20458;-74
2021/12/14 11:33:20;;;;;;;6.63;4.50;;;;;;;;;;5111634;28;20449;-74
2021/12/14 11:35:49;;;;;;;7.63;6.00;;;;;;;;;;5123807;27;20473;-74
2021/12/14 11:38:31;;;;;;;7.23;5.43;;;;;;;;;;5139181;27;20479;-74
2021/12/14 11:41:01;;;;;;;10.00;5.20;;;;;;;;;;5131607;27;20804;-73
2021/12/14 11:43:30;;;;;;;11.17;5.57;;;;;;;;;;5131649;27;20437;-74
2021/12/14 11:45:57;;;;;;;9.00;5.40;;;;;;;;;;5131214;27;20445;-73
2021/12/14 11:48:29;;;;;;;9.47;6.70;;;;;;;;;;5110322;28;20461;-74
2021/12/14 11:50:57;;;;;;;10.73;6.57;;;;;;;;;;5118783;28;20455;-74
2021/12/14 11:53:24;;;;;;;8.67;5.70;;;;;;;;;;5135175;27;20466;-74
2021/12/14 11:55:54;;;;;;;6.97;5.10;;;;;;;;;;5138692;27;20483;-75
2021/12/14 11:58:28;;;;;;;7.93;5.60;;;;;;;;;;5114320;27;20817;-73
2021/12/14 12:01:00;;;;;;;11.60;7.00;;;;;;;;;;5110363;28;20450;-74
2021/12/14 12:03:31;;;;;;;7.93;5.67;;;;;;;;;;5109018;28;20434;-73
2021/12/14 12:06:05;;;;;;;9.43;6.13;;;;;;;;;;5103061;28;20469;-75
2021/12/14 12:11:15;;;;;;;7.77;5.53;;;;;;;;;;5136979;27;20472;-74
2021/12/14 12:13:43;;;;;;;9.80;5.77;;;;;;;;;;5143190;27;20941;-73
2021/12/14 12:16:12;;;;;;;11.40;6.40;;;;;;;;;;5151788;27;20816;-73
2021/12/14 12:18:40;;;;;;;10.73;5.40;;;;;;;;;;5151346;27;20444;-74
2021/12/14 12:21:07;;;;;;;10.47;6.67;;;;;;;;;;5139868;27;20632;-74
2021/12/14 12:23:34;;;;;;;8.87;5.80;;;;;;;;;;5126461;27;20465;-74
2021/12/14 12:26:08;;;;;;;11.70;6.93;;;;;;;;;;5127144;27;20537;-74
2021/12/14 12:28:38;;;;;;;12.03;6.80;;;;;;;;;;5133516;27;20440;-74
2021/12/14 12:31:11;;;;;;;11.23;7.00;;;;;;;;;;5146008;27;20804;-74
2021/12/14 12:33:39;;;;;;;10.07;6.63;;;;;;;;;;5139969;27;20437;-74
2021/12/14 12:36:09;;;;;;;14.83;8.00;;;;;;;;;;5130715;27;20489;-75
2021/12/14 12:38:40;;;;;;;9.77;6.20;;;;;;;;;;5129405;27;20492;-75
2021/12/14 12:41:10;;;;;;;15.90;7.17;;;;;;;;;;5124494;27;20539;-74
2021/12/14 12:43:38;;;;;;;11.97;7.20;;;;;;;;;;5135311;27;20454;-74
2021/12/14 12:46:09;;;;;;;10.20;6.00;;;;;;;;;;5145917;27;20471;-74
2021/12/14 12:48:51;;;;;;;8.20;6.40;;;;;;;;;;5143053;27;20457;-75
2021/12/14 12:51:33;;;;;;;10.13;6.70;;;;;;;;;;5130245;27;21020;-75
2021/12/14 12:54:10;;;;;;;8.90;6.67;;;;;;;;;;5133561;27;20437;-75
2021/12/14 12:56:38;;;;;;;10.33;6.87;;;;;;;;;;5124645;27;20496;-75
2021/12/14 12:59:08;;;;;;;10.40;6.57;;;;;;;;;;5141343;27;20440;-74
2021/12/14 13:01:36;;;;;;;10.87;6.53;;;;;;;;;;5144803;27;20437;-75
2021/12/14 13:04:04;;;;;;;13.63;8.37;;;;;;;;;;5154758;27;20448;-75
2021/12/14 13:06:31;;;;;;;10.43;7.03;;;;;;;;;;5141692;27;20473;-75
2021/12/14 13:09:00;;;;;;;11.40;7.17;;;;;;;;;;5113076;27;20438;-74
2021/12/14 13:11:29;;;;;;;8.77;6.87;;;;;;;;;;5112091;27;20482;-74
2021/12/14 13:13:58;;;;;;;10.10;6.97;;;;;;;;;;5133190;27;20455;-74
2021/12/14 13:16:26;;;;;;;9.30;5.93;;;;;;;;;;5141803;27;20473;-75
2021/12/14 13:18:56;;;;;;;11.77;6.80;;;;;;;;;;5151372;27;20441;-75
2021/12/14 13:21:31;;;;;;;10.07;7.23;;;;;;;;;;5154085;27;20440;-75
2021/12/14 13:24:03;;;;;;;10.87;6.97;;;;;;;;;;5152236;27;20527;-75
2021/12/14 13:26:36;;;;;;;10.83;8.17;;;;;;;;;;5131921;27;20469;-75
2021/12/14 13:29:07;;;;;;;9.20;6.30;;;;;;;;;;5118479;27;20462;-74
2021/12/14 13:31:36;;;;;;;9.77;6.90;;;;;;;;;;5126305;27;20449;-75
2021/12/14 13:34:07;;;;;;;13.83;8.63;;;;;;;;;;5134353;27;20460;-75
2021/12/14 13:36:34;;;;;;;10.47;7.50;;;;;;;;;;5138654;27;20499;-74
2021/12/14 13:39:01;;;;;;;10.10;6.43;;;;;;;;;;5136428;27;20489;-75
2021/12/14 13:41:43;;;;;;;10.77;6.70;;;;;;;;;;5130609;27;20472;-73
2021/12/14 13:44:10;;;;;;;13.27;7.90;;;;;;;;;;5130634;27;20961;-75
2021/12/14 13:46:38;;;;;;;11.07;8.13;;;;;;;;;;5132465;27;20445;-74
2021/12/14 13:49:06;;;;;;;11.70;6.90;;;;;;;;;;5131579;27;20663;-75
2021/12/14 13:51:33;;;;;;;11.57;7.50;;;;;;;;;;5117216;27;20955;-75
2021/12/14 13:54:00;;;;;;;12.00;8.13;;;;;;;;;;5140849;27;20425;-75
2021/12/14 13:56:29;;;;;;;9.70;7.17;;;;;;;;;;5137685;27;20473;-72
2021/12/14 13:58:59;;;;;;;8.73;6.90;;;;;;;;;;5132354;27;20469;-73
2021/12/14 14:01:28;;;;;;;12.73;8.17;;;;;;;;;;5129615;27;20464;-75
2021/12/14 14:03:58;;;;;;;9.20;7.87;;;;;;;;;;5133089;27;20755;-75
2021/12/14 14:06:27;;;;;;;12.33;8.20;;;;;;;;;;5128518;27;20496;-74
2021/12/14 14:08:56;;;;;;;12.70;7.73;;;;;;;;;;5114016;28;20442;-75
2021/12/14 14:11:25;;;;;;;10.40;7.30;;;;;;;;;;5130249;27;20934;-75
2021/12/14 14:13:53;;;;;;;12.60;8.60;;;;;;;;;;5132096;27;20464;-74
2021/12/14 14:16:21;;;;;;;11.00;7.83;;;;;;;;;;5139900;27;20480;-74
2021/12/14 14:18:50;;;;;;;12.50;8.47;;;;;;;;;;5136182;27;20449;-75
2021/12/14 14:21:19;;;;;;;10.07;7.83;;;;;;;;;;5129094;27;20909;-74
2021/12/14 14:23:49;;;;;;;12.33;7.90;;;;;;;;;;5116237;27;20454;-75
2021/12/14 14:26:21;;;;;;;9.97;7.30;;;;;;;;;;5120043;27;20526;-74
2021/12/14 14:28:49;;;;;;;10.43;7.80;;;;;;;;;;5118575;27;20455;-75
2021/12/14 14:31:41;;;;;;;13.27;8.43;;;;;;;;;;5124529;27;20429;-75
2021/12/14 14:34:18;;;;;;;10.00;7.57;;;;;;;;;;5138655;27;20441;-75
2021/12/14 14:36:45;;;;;;;12.07;8.13;;;;;;;;;;5142018;27;20485;-75
2021/12/14 14:39:15;;;;;;;9.77;7.80;;;;;;;;;;5130077;27;20517;-75
2021/12/14 14:41:45;;;;;;;11.53;7.47;;;;;;;;;;5131828;27;20445;-74
2021/12/14 14:44:14;;;;;;;11.73;7.67;;;;;;;;;;5132863;27;20437;-75
2021/12/14 14:46:50;;;;;;;11.03;8.00;;;;;;;;;;5117340;27;20497;-75
2021/12/14 14:49:19;;;;;;;13.17;8.33;;;;;;;;;;5133782;27;20452;-75
2021/12/14 14:51:48;;;;;;;12.47;8.23;;;;;;;;;;5133736;27;20445;-74
2021/12/14 14:54:30;;;;;;;9.90;7.70;;;;;;;;;;5135662;27;20804;-75
2021/12/14 14:56:58;;;;;;;11.00;8.43;;;;;;;;;;5139038;27;20468;-74
2021/12/14 14:59:26;;;;;;;9.97;7.30;;;;;;;;;;5126174;27;20465;-75
2021/12/14 15:01:53;;;;;;;10.97;9.27;;;;;;;;;;5110976;28;20438;-75
2021/12/14 15:04:20;;;;;;;8.67;7.00;;;;;;;;;;5108297;27;20660;-75
2021/12/14 15:06:50;;;;;;;9.77;7.40;;;;;;;;;;5111481;28;20449;-75
2021/12/14 15:09:20;;;;;;;12.20;7.80;;;;;;;;;;5109758;28;20453;-75
2021/12/14 15:11:51;;;;;;;10.63;8.00;;;;;;;;;;5113255;28;20450;-75
2021/12/14 15:14:27;;;;;;;15.90;7.43;;;;;;;;;;5111588;28;20449;-74
2021/12/14 15:16:56;;;;;;;10.50;7.70;;;;;;;;;;5136121;27;20562;-76
2021/12/14 15:19:24;;;;;;;10.30;7.50;;;;;;;;;;5138437;27;20841;-76